Weather at Grimbergen Airfield

Public forecast

Using degrees Celsius for public forecast. Weather courtesy of forecast.io.

Closest aviation weather report (METAR) to Grimbergen Airfield

Closest report is Brussels Airport, 4.5 nm (8.3 km) SE.

2024/05/23 06:50 (retrieved 29 minutes ago)

EBBR 230650Z 23009KT 190V250 9999 FEW018 15/11 Q1014 NOSIG

Closest aviation forecast (TAF) to Grimbergen Airfield

Closest forecast is Brussels Airport, 4.5 nm (8.3 km) SE.

2024/05/23 06:28 (retrieved 51 minutes ago)

TAF EBBR 230510Z 2306/2412 23006KT 9999 SCT020 PROB30 TEMPO 2312/2318 4000 SHRA SCT030CB